sensor_id;sensor_type;location;lat;lon;timestamp;pressure;altitude;pressure_sealevel;temperature;humidity
79791;BME280;69278;52.220;5.172;2023-04-24T00:02:15;99774.13;;;11.54;78.44
79791;BME280;69278;52.220;5.172;2023-04-24T00:04:42;99799.84;;;11.52;77.93
79791;BME280;69278;52.220;5.172;2023-04-24T00:07:11;99755.06;;;11.27;78.20
79791;BME280;69278;52.220;5.172;2023-04-24T00:09:39;99802.31;;;11.53;78.14
79791;BME280;69278;52.220;5.172;2023-04-24T00:12:06;99801.50;;;11.37;77.98
79791;BME280;69278;52.220;5.172;2023-04-24T00:14:32;99812.38;;;11.33;78.41
79791;BME280;69278;52.220;5.172;2023-04-24T00:16:59;99809.44;;;11.28;78.79
79791;BME280;69278;52.220;5.172;2023-04-24T00:19:25;99822.59;;;11.37;78.94
79791;BME280;69278;52.220;5.172;2023-04-24T00:21:52;99811.56;;;11.25;79.21
79791;BME280;69278;52.220;5.172;2023-04-24T00:24:18;99820.97;;;11.27;79.30
79791;BME280;69278;52.220;5.172;2023-04-24T00:26:45;99837.75;;;11.34;79.14
79791;BME280;69278;52.220;5.172;2023-04-24T00:29:11;99851.91;;;11.42;79.21
79791;BME280;69278;52.220;5.172;2023-04-24T00:31:38;99839.91;;;11.31;78.76
79791;BME280;69278;52.220;5.172;2023-04-24T00:34:04;99855.72;;;11.31;78.97
79791;BME280;69278;52.220;5.172;2023-04-24T00:36:31;99856.22;;;11.34;78.98
79791;BME280;69278;52.220;5.172;2023-04-24T00:38:58;99849.13;;;11.27;79.24
79791;BME280;69278;52.220;5.172;2023-04-24T00:41:25;99854.56;;;11.25;79.25
79791;BME280;69278;52.220;5.172;2023-04-24T00:43:52;99873.84;;;11.26;79.75
79791;BME280;69278;52.220;5.172;2023-04-24T00:46:19;99850.75;;;11.12;79.62
79791;BME280;69278;52.220;5.172;2023-04-24T00:48:46;99835.09;;;11.02;79.62
79791;BME280;69278;52.220;5.172;2023-04-24T00:51:12;99884.53;;;11.16;80.02
79791;BME280;69278;52.220;5.172;2023-04-24T00:53:39;99868.06;;;11.14;79.79
79791;BME280;69278;52.220;5.172;2023-04-24T00:56:05;99882.22;;;11.21;79.91
79791;BME280;69278;52.220;5.172;2023-04-24T00:58:32;99877.59;;;11.07;79.77
79791;BME280;69278;52.220;5.172;2023-04-24T01:00:59;99889.63;;;11.10;80.16
79791;BME280;69278;52.220;5.172;2023-04-24T01:03:29;99895.69;;;11.02;79.94
79791;BME280;69278;52.220;5.172;2023-04-24T01:05:58;99881.38;;;11.05;80.10
79791;BME280;69278;52.220;5.172;2023-04-24T01:08:26;99897.69;;;11.08;80.34
79791;BME280;69278;52.220;5.172;2023-04-24T01:10:54;99891.75;;;10.98;80.04
79791;BME280;69278;52.220;5.172;2023-04-24T01:13:21;99900.50;;;11.07;79.98
79791;BME280;69278;52.220;5.172;2023-04-24T01:15:48;99906.25;;;11.02;80.04
79791;BME280;69278;52.220;5.172;2023-04-24T01:18:14;99901.97;;;11.01;79.87
79791;BME280;69278;52.220;5.172;2023-04-24T01:20:42;99888.75;;;10.85;79.65
79791;BME280;69278;52.220;5.172;2023-04-24T01:23:10;99902.13;;;10.92;80.06
79791;BME280;69278;52.220;5.172;2023-04-24T01:25:37;99911.50;;;10.94;79.96
79791;BME280;69278;52.220;5.172;2023-04-24T01:28:03;99878.53;;;10.74;80.21
79791;BME280;69278;52.220;5.172;2023-04-24T01:30:31;99906.25;;;10.94;80.59
79791;BME280;69278;52.220;5.172;2023-04-24T01:32:58;99908.00;;;10.86;80.62
79791;BME280;69278;52.220;5.172;2023-04-24T01:35:25;99904.75;;;10.92;80.60
79791;BME280;69278;52.220;5.172;2023-04-24T01:37:52;99892.88;;;10.88;80.48
79791;BME280;69278;52.220;5.172;2023-04-24T01:40:19;99890.75;;;10.91;80.62
79791;BME280;69278;52.220;5.172;2023-04-24T01:42:45;99882.50;;;10.86;80.54
79791;BME280;69278;52.220;5.172;2023-04-24T01:45:12;99901.47;;;11.06;80.34
79791;BME280;69278;52.220;5.172;2023-04-24T01:47:41;99899.34;;;11.01;80.29
79791;BME280;69278;52.220;5.172;2023-04-24T01:50:09;99904.75;;;11.00;80.32
79791;BME280;69278;52.220;5.172;2023-04-24T01:52:35;99918.13;;;11.06;80.31
79791;BME280;69278;52.220;5.172;2023-04-24T01:55:03;99919.09;;;11.05;80.27
79791;BME280;69278;52.220;5.172;2023-04-24T01:57:31;99916.13;;;11.00;80.16
79791;BME280;69278;52.220;5.172;2023-04-24T01:59:58;99925.03;;;11.07;80.21
79791;BME280;69278;52.220;5.172;2023-04-24T02:02:24;99929.94;;;11.02;79.72
79791;BME280;69278;52.220;5.172;2023-04-24T02:04:54;99929.28;;;11.00;80.08
79791;BME280;69278;52.220;5.172;2023-04-24T02:07:21;99909.03;;;10.93;79.72
79791;BME280;69278;52.220;5.172;2023-04-24T02:09:48;99876.06;;;10.73;79.72
79791;BME280;69278;52.220;5.172;2023-04-24T02:12:15;99920.38;;;10.93;79.88
79791;BME280;69278;52.220;5.172;2023-04-24T02:14:42;99925.47;;;10.95;79.87
79791;BME280;69278;52.220;5.172;2023-04-24T02:17:09;99915.44;;;10.90;79.91
79791;BME280;69278;52.220;5.172;2023-04-24T02:19:35;99909.81;;;10.85;80.00
79791;BME280;69278;52.220;5.172;2023-04-24T02:22:02;99913.59;;;10.83;79.75
79791;BME280;69278;52.220;5.172;2023-04-24T02:24:28;99923.00;;;10.85;79.67
79791;BME280;69278;52.220;5.172;2023-04-24T02:26:55;99915.72;;;10.71;79.44
79791;BME280;69278;52.220;5.172;2023-04-24T02:29:21;99936.97;;;10.78;79.29
79791;BME280;69278;52.220;5.172;2023-04-24T02:31:48;99927.38;;;10.68;79.55
79791;BME280;69278;52.220;5.172;2023-04-24T02:34:15;99938.75;;;10.69;79.30
79791;BME280;69278;52.220;5.172;2023-04-24T02:36:42;99941.72;;;10.74;79.29
79791;BME280;69278;52.220;5.172;2023-04-24T02:39:09;99936.28;;;10.68;79.18
79791;BME280;69278;52.220;5.172;2023-04-24T02:41:35;99925.88;;;10.66;79.46
79791;BME280;69278;52.220;5.172;2023-04-24T02:44:02;99928.53;;;10.66;79.43
79791;BME280;69278;52.220;5.172;2023-04-24T02:46:28;99930.50;;;10.64;79.61
79791;BME280;69278;52.220;5.172;2023-04-24T02:48:55;99933.13;;;10.64;80.01
79791;BME280;69278;52.220;5.172;2023-04-24T02:51:21;99937.13;;;10.68;79.69
79791;BME280;69278;52.220;5.172;2023-04-24T02:53:48;99935.44;;;10.67;80.13
79791;BME280;69278;52.220;5.172;2023-04-24T02:56:14;99937.91;;;10.68;79.62
79791;BME280;69278;52.220;5.172;2023-04-24T02:58:41;99938.25;;;10.74;79.89
79791;BME280;69278;52.220;5.172;2023-04-24T03:01:08;99932.34;;;10.72;80.00
79791;BME280;69278;52.220;5.172;2023-04-24T03:03:37;99933.13;;;10.64;80.11
79791;BME280;69278;52.220;5.172;2023-04-24T03:06:04;99906.75;;;10.48;80.15
79791;BME280;69278;52.220;5.172;2023-04-24T03:08:32;99933.47;;;10.69;80.26
79791;BME280;69278;52.220;5.172;2023-04-24T03:10:59;99922.91;;;10.61;80.31
79791;BME280;69278;52.220;5.172;2023-04-24T03:13:26;99927.56;;;10.67;79.99
79791;BME280;69278;52.220;5.172;2023-04-24T03:15:52;99895.88;;;10.43;80.02
79791;BME280;69278;52.220;5.172;2023-04-24T03:18:20;99922.75;;;10.62;79.72
79791;BME280;69278;52.220;5.172;2023-04-24T03:20:47;99925.06;;;10.57;79.29
79791;BME280;69278;52.220;5.172;2023-04-24T03:23:13;99936.78;;;10.71;79.81
79791;BME280;69278;52.220;5.172;2023-04-24T03:25:40;99930.00;;;10.68;79.89
79791;BME280;69278;52.220;5.172;2023-04-24T03:28:08;99920.97;;;10.63;80.01
79791;BME280;69278;52.220;5.172;2023-04-24T03:30:35;99920.13;;;10.62;80.06
79791;BME280;69278;52.220;5.172;2023-04-24T03:33:01;99928.38;;;10.68;80.13
79791;BME280;69278;52.220;5.172;2023-04-24T03:35:28;99945.34;;;10.73;79.83
79791;BME280;69278;52.220;5.172;2023-04-24T03:37:54;99914.69;;;10.64;80.24
79791;BME280;69278;52.220;5.172;2023-04-24T03:40:21;99908.72;;;10.54;80.00
79791;BME280;69278;52.220;5.172;2023-04-24T03:42:47;99923.94;;;10.68;80.16
79791;BME280;69278;52.220;5.172;2023-04-24T03:45:14;99934.34;;;10.78;79.74
79791;BME280;69278;52.220;5.172;2023-04-24T03:47:40;99929.22;;;10.76;79.89
79791;BME280;69278;52.220;5.172;2023-04-24T03:50:07;99934.50;;;10.76;79.88
79791;BME280;69278;52.220;5.172;2023-04-24T03:52:35;99931.22;;;10.82;79.79
79791;BME280;69278;52.220;5.172;2023-04-24T03:55:01;99931.06;;;10.84;79.68
79791;BME280;69278;52.220;5.172;2023-04-24T03:57:28;99913.72;;;10.73;79.52
79791;BME280;69278;52.220;5.172;2023-04-24T03:59:55;99921.81;;;10.72;79.47
79791;BME280;69278;52.220;5.172;2023-04-24T04:02:21;99930.72;;;10.79;79.79
79791;BME280;69278;52.220;5.172;2023-04-24T04:04:48;99927.41;;;10.77;79.63
79791;BME280;69278;52.220;5.172;2023-04-24T04:07:14;99936.63;;;10.81;79.45
79791;BME280;69278;52.220;5.172;2023-04-24T04:09:41;99938.13;;;10.83;79.57
79791;BME280;69278;52.220;5.172;2023-04-24T04:12:07;99933.66;;;10.76;79.33
79791;BME280;69278;52.220;5.172;2023-04-24T04:14:34;99954.94;;;10.82;79.31
79791;BME280;69278;52.220;5.172;2023-04-24T04:17:00;99950.63;;;10.81;79.41
79791;BME280;69278;52.220;5.172;2023-04-24T04:19:27;99956.06;;;10.80;79.34
79791;BME280;69278;52.220;5.172;2023-04-24T04:21:53;99962.47;;;10.77;79.37
79791;BME280;69278;52.220;5.172;2023-04-24T04:24:22;99960.81;;;10.68;79.19
79791;BME280;69278;52.220;5.172;2023-04-24T04:26:50;99964.25;;;10.68;79.73
79791;BME280;69278;52.220;5.172;2023-04-24T04:29:17;99961.94;;;10.65;79.62
79791;BME280;69278;52.220;5.172;2023-04-24T04:31:48;99960.91;;;10.58;79.92
79791;BME280;69278;52.220;5.172;2023-04-24T04:34:15;99935.69;;;10.48;79.72
79791;BME280;69278;52.220;5.172;2023-04-24T04:36:41;99972.00;;;10.70;79.41
79791;BME280;69278;52.220;5.172;2023-04-24T04:39:09;99988.59;;;10.71;79.76
79791;BME280;69278;52.220;5.172;2023-04-24T04:41:36;99996.72;;;10.77;79.71
79791;BME280;69278;52.220;5.172;2023-04-24T04:44:04;99972.63;;;10.64;79.03
79791;BME280;69278;52.220;5.172;2023-04-24T04:46:31;99973.56;;;10.55;79.13
79791;BME280;69278;52.220;5.172;2023-04-24T04:49:00;100001.22;;;10.59;79.20
79791;BME280;69278;52.220;5.172;2023-04-24T04:51:27;99991.03;;;10.56;79.39
79791;BME280;69278;52.220;5.172;2023-04-24T04:53:53;99999.78;;;10.64;79.37
79791;BME280;69278;52.220;5.172;2023-04-24T04:56:20;100000.91;;;10.62;79.25
79791;BME280;69278;52.220;5.172;2023-04-24T04:58:46;100001.69;;;10.54;79.58
79791;BME280;69278;52.220;5.172;2023-04-24T05:01:13;100010.91;;;10.50;79.49
79791;BME280;69278;52.220;5.172;2023-04-24T05:03:40;100013.00;;;10.47;79.71
79791;BME280;69278;52.220;5.172;2023-04-24T05:06:07;100007.38;;;10.42;79.35
79791;BME280;69278;52.220;5.172;2023-04-24T05:08:33;100013.59;;;10.33;79.66
79791;BME280;69278;52.220;5.172;2023-04-24T05:11:00;100017.88;;;10.34;79.78
79791;BME280;69278;52.220;5.172;2023-04-24T05:13:26;100041.22;;;10.37;80.16
79791;BME280;69278;52.220;5.172;2023-04-24T05:16:05;100018.34;;;10.29;79.76
79791;BME280;69278;52.220;5.172;2023-04-24T05:18:32;100051.00;;;10.44;79.79
79791;BME280;69278;52.220;5.172;2023-04-24T05:20:58;100032.16;;;10.31;79.80
79791;BME280;69278;52.220;5.172;2023-04-24T05:23:24;100040.19;;;10.30;78.93
79791;BME280;69278;52.220;5.172;2023-04-24T05:25:51;100049.75;;;10.31;79.47
79791;BME280;69278;52.220;5.172;2023-04-24T05:28:18;100062.38;;;10.27;79.24
79791;BME280;69278;52.220;5.172;2023-04-24T05:30:44;100063.78;;;10.14;78.86
79791;BME280;69278;52.220;5.172;2023-04-24T05:33:10;100064.31;;;10.17;79.58
79791;BME280;69278;52.220;5.172;2023-04-24T05:35:37;100076.16;;;10.21;79.31
79791;BME280;69278;52.220;5.172;2023-04-24T05:38:03;100066.94;;;10.17;79.51
79791;BME280;69278;52.220;5.172;2023-04-24T05:40:30;100071.03;;;10.20;79.07
79791;BME280;69278;52.220;5.172;2023-04-24T05:42:56;100082.09;;;10.23;79.01
79791;BME280;69278;52.220;5.172;2023-04-24T05:45:23;100090.19;;;10.30;79.59
79791;BME280;69278;52.220;5.172;2023-04-24T05:47:49;100053.97;;;10.06;79.42
79791;BME280;69278;52.220;5.172;2023-04-24T05:50:18;100104.06;;;10.32;78.62
79791;BME280;69278;52.220;5.172;2023-04-24T05:52:45;100095.56;;;10.20;79.16
79791;BME280;69278;52.220;5.172;2023-04-24T05:55:11;100108.78;;;10.28;79.66
79791;BME280;69278;52.220;5.172;2023-04-24T05:57:38;100098.34;;;10.62;81.21
79791;BME280;69278;52.220;5.172;2023-04-24T06:00:05;100091.59;;;10.93;79.05
79791;BME280;69278;52.220;5.172;2023-04-24T06:02:32;100124.00;;;10.86;78.13
79791;BME280;69278;52.220;5.172;2023-04-24T06:04:59;100128.81;;;10.64;78.90
79791;BME280;69278;52.220;5.172;2023-04-24T06:07:26;100141.41;;;10.35;79.16
79791;BME280;69278;52.220;5.172;2023-04-24T06:09:52;100141.28;;;10.19;79.57
79791;BME280;69278;52.220;5.172;2023-04-24T06:12:19;100170.69;;;10.15;79.18
79791;BME280;69278;52.220;5.172;2023-04-24T06:14:45;100157.69;;;10.03;79.51
79791;BME280;69278;52.220;5.172;2023-04-24T06:17:12;100174.00;;;9.89;80.08
79791;BME280;69278;52.220;5.172;2023-04-24T06:19:38;100156.53;;;9.71;80.31
79791;BME280;69278;52.220;5.172;2023-04-24T06:22:05;100179.22;;;9.72;80.66
79791;BME280;69278;52.220;5.172;2023-04-24T06:24:33;100180.94;;;9.63;81.15
79791;BME280;69278;52.220;5.172;2023-04-24T06:27:00;100194.75;;;9.65;81.58
79791;BME280;69278;52.220;5.172;2023-04-24T06:29:27;100204.97;;;9.68;81.67
79791;BME280;69278;52.220;5.172;2023-04-24T06:31:54;100210.81;;;9.62;81.67
79791;BME280;69278;52.220;5.172;2023-04-24T06:34:20;100196.31;;;9.58;81.44
79791;BME280;69278;52.220;5.172;2023-04-24T06:36:47;100224.34;;;9.67;81.44
79791;BME280;69278;52.220;5.172;2023-04-24T06:39:13;100218.00;;;9.60;81.29
79791;BME280;69278;52.220;5.172;2023-04-24T06:41:40;100239.69;;;9.72;81.56
79791;BME280;69278;52.220;5.172;2023-04-24T06:44:07;100238.31;;;9.68;81.81
79791;BME280;69278;52.220;5.172;2023-04-24T06:46:33;100232.13;;;9.59;81.70
79791;BME280;69278;52.220;5.172;2023-04-24T06:49:00;100252.03;;;9.62;81.48
79791;BME280;69278;52.220;5.172;2023-04-24T06:51:27;100258.13;;;9.62;81.22
79791;BME280;69278;52.220;5.172;2023-04-24T06:53:54;100257.88;;;9.56;80.42
79791;BME280;69278;52.220;5.172;2023-04-24T06:56:22;100262.19;;;9.47;80.13
79791;BME280;69278;52.220;5.172;2023-04-24T06:58:48;100264.81;;;9.47;79.74
79791;BME280;69278;52.220;5.172;2023-04-24T07:01:15;100267.31;;;9.49;80.28
79791;BME280;69278;52.220;5.172;2023-04-24T07:03:41;100276.03;;;9.49;80.27
79791;BME280;69278;52.220;5.172;2023-04-24T07:06:09;100298.94;;;9.57;80.49
79791;BME280;69278;52.220;5.172;2023-04-24T07:08:37;100301.19;;;9.52;80.18
79791;BME280;69278;52.220;5.172;2023-04-24T07:11:04;100307.81;;;9.56;80.21
79791;BME280;69278;52.220;5.172;2023-04-24T07:13:30;100290.16;;;9.39;80.54
79791;BME280;69278;52.220;5.172;2023-04-24T07:15:57;100310.44;;;9.56;80.36
79791;BME280;69278;52.220;5.172;2023-04-24T07:18:24;100318.50;;;9.54;80.12
79791;BME280;69278;52.220;5.172;2023-04-24T07:20:50;100324.28;;;9.58;80.24
79791;BME280;69278;52.220;5.172;2023-04-24T07:23:17;100328.00;;;9.55;79.89
79791;BME280;69278;52.220;5.172;2023-04-24T07:25:44;100327.19;;;9.55;79.97
79791;BME280;69278;52.220;5.172;2023-04-24T07:28:10;100321.00;;;9.46;80.05
79791;BME280;69278;52.220;5.172;2023-04-24T07:30:36;100293.50;;;9.31;80.41
79791;BME280;69278;52.220;5.172;2023-04-24T07:33:03;100334.25;;;9.54;80.50
79791;BME280;69278;52.220;5.172;2023-04-24T07:35:29;100328.16;;;9.54;80.63
79791;BME280;69278;52.220;5.172;2023-04-24T07:37:56;100327.09;;;9.47;79.92
79791;BME280;69278;52.220;5.172;2023-04-24T07:40:22;100349.31;;;9.52;79.29
79791;BME280;69278;52.220;5.172;2023-04-24T07:42:50;100331.78;;;9.43;80.13
79791;BME280;69278;52.220;5.172;2023-04-24T07:45:16;100386.84;;;9.54;80.25
79791;BME280;69278;52.220;5.172;2023-04-24T07:47:43;100395.69;;;9.53;80.46
79791;BME280;69278;52.220;5.172;2023-04-24T07:50:12;100382.53;;;9.53;80.62
79791;BME280;69278;52.220;5.172;2023-04-24T07:52:39;100393.19;;;9.61;80.58
79791;BME280;69278;52.220;5.172;2023-04-24T07:55:06;100395.41;;;9.47;79.81
79791;BME280;69278;52.220;5.172;2023-04-24T07:57:33;100391.38;;;9.43;80.05
79791;BME280;69278;52.220;5.172;2023-04-24T07:59:59;100418.66;;;9.51;80.28
79791;BME280;69278;52.220;5.172;2023-04-24T08:02:26;100381.03;;;9.22;80.55
79791;BME280;69278;52.220;5.172;2023-04-24T08:04:53;100426.97;;;9.37;81.01
79791;BME280;69278;52.220;5.172;2023-04-24T08:07:21;100448.09;;;9.26;80.76
79791;BME280;69278;52.220;5.172;2023-04-24T08:09:47;100405.53;;;9.03;81.04
79791;BME280;69278;52.220;5.172;2023-04-24T08:12:14;100422.50;;;9.09;81.45
79791;BME280;69278;52.220;5.172;2023-04-24T08:14:40;100439.25;;;9.17;81.50
79791;BME280;69278;52.220;5.172;2023-04-24T08:17:08;100446.97;;;9.09;81.14
79791;BME280;69278;52.220;5.172;2023-04-24T08:19:34;100454.88;;;9.19;80.92
79791;BME280;69278;52.220;5.172;2023-04-24T08:22:00;100467.06;;;9.29;81.00
79791;BME280;69278;52.220;5.172;2023-04-24T08:24:27;100470.53;;;9.40;81.10
79791;BME280;69278;52.220;5.172;2023-04-24T08:26:53;100442.97;;;9.15;80.66
79791;BME280;69278;52.220;5.172;2023-04-24T08:29:22;100468.59;;;9.32;79.47
79791;BME280;69278;52.220;5.172;2023-04-24T08:31:49;100492.94;;;9.44;79.04
79791;BME280;69278;52.220;5.172;2023-04-24T08:34:15;100476.47;;;9.51;77.95
79791;BME280;69278;52.220;5.172;2023-04-24T08:36:42;100475.63;;;9.70;74.08
79791;BME280;69278;52.220;5.172;2023-04-24T08:39:13;100489.47;;;9.72;76.19
79791;BME280;69278;52.220;5.172;2023-04-24T08:41:41;100509.38;;;9.74;75.85
79791;BME280;69278;52.220;5.172;2023-04-24T08:44:10;100505.25;;;9.62;74.86
79791;BME280;69278;52.220;5.172;2023-04-24T08:46:37;100495.97;;;9.58;74.38
79791;BME280;69278;52.220;5.172;2023-04-24T08:49:03;100502.19;;;9.57;73.16
79791;BME280;69278;52.220;5.172;2023-04-24T08:51:30;100497.22;;;9.54;74.22
79791;BME280;69278;52.220;5.172;2023-04-24T08:53:57;100506.22;;;9.52;73.99
79791;BME280;69278;52.220;5.172;2023-04-24T08:56:24;100527.38;;;9.69;74.47
79791;BME280;69278;52.220;5.172;2023-04-24T08:58:51;100520.06;;;9.63;74.13
79791;BME280;69278;52.220;5.172;2023-04-24T09:01:23;100531.41;;;9.54;74.04
79791;BME280;69278;52.220;5.172;2023-04-24T09:03:52;100489.44;;;9.24;73.84
79791;BME280;69278;52.220;5.172;2023-04-24T09:06:21;100541.50;;;9.59;74.87
79791;BME280;69278;52.220;5.172;2023-04-24T09:08:49;100497.34;;;9.24;73.33
79791;BME280;69278;52.220;5.172;2023-04-24T09:11:18;100541.63;;;9.48;73.73
79791;BME280;69278;52.220;5.172;2023-04-24T09:13:45;100556.44;;;9.58;73.15
79791;BME280;69278;52.220;5.172;2023-04-24T09:16:13;100516.31;;;9.85;77.04
79791;BME280;69278;52.220;5.172;2023-04-24T09:18:40;100560.41;;;10.58;74.58
79791;BME280;69278;52.220;5.172;2023-04-24T09:21:08;100558.22;;;10.81;72.85
79791;BME280;69278;52.220;5.172;2023-04-24T09:23:35;100547.59;;;11.00;71.51
79791;BME280;69278;52.220;5.172;2023-04-24T09:26:02;100540.34;;;11.11;70.74
79791;BME280;69278;52.220;5.172;2023-04-24T09:28:34;100501.56;;;11.04;69.90
79791;BME280;69278;52.220;5.172;2023-04-24T09:31:09;100517.94;;;11.25;69.57
79791;BME280;69278;52.220;5.172;2023-04-24T09:33:36;100559.34;;;11.60;68.70
79791;BME280;69278;52.220;5.172;2023-04-24T09:36:03;100567.03;;;11.71;67.44
79791;BME280;69278;52.220;5.172;2023-04-24T09:38:37;100577.06;;;11.85;67.58
79791;BME280;69278;52.220;5.172;2023-04-24T09:41:08;100564.25;;;11.90;66.30
79791;BME280;69278;52.220;5.172;2023-04-24T09:43:35;100570.28;;;12.00;64.68
79791;BME280;69278;52.220;5.172;2023-04-24T09:46:07;100578.81;;;11.94;63.51
79791;BME280;69278;52.220;5.172;2023-04-24T09:48:35;100592.44;;;12.07;65.63
79791;BME280;69278;52.220;5.172;2023-04-24T09:51:04;100590.44;;;12.01;62.70
79791;BME280;69278;52.220;5.172;2023-04-24T09:53:33;100587.34;;;11.88;61.90
79791;BME280;69278;52.220;5.172;2023-04-24T09:56:07;100594.56;;;11.68;61.20
79791;BME280;69278;52.220;5.172;2023-04-24T09:58:35;100599.88;;;11.31;61.98
79791;BME280;69278;52.220;5.172;2023-04-24T10:01:02;100602.88;;;10.82;63.49
79791;BME280;69278;52.220;5.172;2023-04-24T10:03:30;100620.44;;;10.35;64.68
79791;BME280;69278;52.220;5.172;2023-04-24T10:06:01;100636.38;;;10.34;65.17
79791;BME280;69278;52.220;5.172;2023-04-24T10:08:35;100619.47;;;10.27;66.88
79791;BME280;69278;52.220;5.172;2023-04-24T10:11:02;100586.25;;;10.16;66.81
79791;BME280;69278;52.220;5.172;2023-04-24T10:13:29;100609.63;;;10.48;67.00
79791;BME280;69278;52.220;5.172;2023-04-24T10:15:58;100612.66;;;10.53;65.71
79791;BME280;69278;52.220;5.172;2023-04-24T10:18:27;100620.66;;;10.61;65.67
79791;BME280;69278;52.220;5.172;2023-04-24T10:20:53;100620.91;;;10.77;65.48
79791;BME280;69278;52.220;5.172;2023-04-24T10:23:21;100590.72;;;10.62;66.12
79791;BME280;69278;52.220;5.172;2023-04-24T10:25:48;100622.69;;;10.86;64.84
79791;BME280;69278;52.220;5.172;2023-04-24T10:28:17;100616.31;;;10.79;65.43
79791;BME280;69278;52.220;5.172;2023-04-24T10:30:45;100617.88;;;10.72;65.92
79791;BME280;69278;52.220;5.172;2023-04-24T10:33:11;100625.28;;;10.40;66.18
79791;BME280;69278;52.220;5.172;2023-04-24T10:35:43;100641.47;;;10.54;67.02
79791;BME280;69278;52.220;5.172;2023-04-24T10:38:12;100639.13;;;10.42;67.67
79791;BME280;69278;52.220;5.172;2023-04-24T10:40:40;100637.75;;;10.38;67.94
79791;BME280;69278;52.220;5.172;2023-04-24T10:43:07;100645.66;;;10.28;68.60
79791;BME280;69278;52.220;5.172;2023-04-24T10:45:38;100651.75;;;10.19;68.74
79791;BME280;69278;52.220;5.172;2023-04-24T10:48:08;100660.34;;;10.12;70.06
79791;BME280;69278;52.220;5.172;2023-04-24T10:50:47;100680.94;;;10.07;70.31
79791;BME280;69278;52.220;5.172;2023-04-24T10:53:18;100663.88;;;10.01;71.15
79791;BME280;69278;52.220;5.172;2023-04-24T10:55:51;100669.72;;;10.05;71.06
79791;BME280;69278;52.220;5.172;2023-04-24T10:58:26;100662.09;;;10.01;72.44
79791;BME280;69278;52.220;5.172;2023-04-24T11:01:01;100642.72;;;9.93;72.02
79791;BME280;69278;52.220;5.172;2023-04-24T11:03:30;100660.44;;;10.20;72.19
79791;BME280;69278;52.220;5.172;2023-04-24T11:06:04;100685.94;;;10.57;72.61
79791;BME280;69278;52.220;5.172;2023-04-24T11:08:38;100631.22;;;10.42;71.19
79791;BME280;69278;52.220;5.172;2023-04-24T11:11:13;100688.44;;;11.24;70.77
79791;BME280;69278;52.220;5.172;2023-04-24T11:14:07;100676.56;;;11.75;67.67
79791;BME280;69278;52.220;5.172;2023-04-24T11:17:06;100627.47;;;11.37;63.70
79791;BME280;69278;52.220;5.172;2023-04-24T11:19:33;100665.09;;;11.29;63.44
79791;BME280;69278;52.220;5.172;2023-04-24T11:22:04;100670.91;;;10.96;62.53
79791;BME280;69278;52.220;5.172;2023-04-24T11:24:49;100633.00;;;10.70;63.20
79791;BME280;69278;52.220;5.172;2023-04-24T11:27:19;100692.34;;;11.20;63.12
79791;BME280;69278;52.220;5.172;2023-04-24T11:29:48;100650.59;;;11.16;62.22
79791;BME280;69278;52.220;5.172;2023-04-24T11:37:36;100700.28;;;11.48;61.04
79791;BME280;69278;52.220;5.172;2023-04-24T11:40:05;100689.44;;;11.51;60.68
79791;BME280;69278;52.220;5.172;2023-04-24T11:42:44;100714.59;;;11.45;59.32
79791;BME280;69278;52.220;5.172;2023-04-24T11:45:20;100671.16;;;11.40;61.31
79791;BME280;69278;52.220;5.172;2023-04-24T11:47:48;100711.25;;;11.80;60.38
79791;BME280;69278;52.220;5.172;2023-04-24T11:50:17;100692.88;;;11.88;59.73
79791;BME280;69278;52.220;5.172;2023-04-24T11:52:45;100715.56;;;11.81;60.52
79791;BME280;69278;52.220;5.172;2023-04-24T11:57:50;100740.13;;;11.45;60.02
79791;BME280;69278;52.220;5.172;2023-04-24T12:00:22;100735.53;;;11.47;59.77
79791;BME280;69278;52.220;5.172;2023-04-24T12:02:49;100720.03;;;11.34;59.07
79791;BME280;69278;52.220;5.172;2023-04-24T12:05:20;100745.88;;;11.30;57.62
79791;BME280;69278;52.220;5.172;2023-04-24T12:07:48;100732.59;;;11.13;57.25
79791;BME280;69278;52.220;5.172;2023-04-24T12:10:20;100746.38;;;11.34;57.08
79791;BME280;69278;52.220;5.172;2023-04-24T12:12:47;100746.94;;;11.38;58.63
79791;BME280;69278;52.220;5.172;2023-04-24T12:15:15;100762.63;;;11.29;57.50
79791;BME280;69278;52.220;5.172;2023-04-24T12:17:42;100738.41;;;11.16;56.56
79791;BME280;69278;52.220;5.172;2023-04-24T12:20:09;100742.84;;;11.16;58.10
79791;BME280;69278;52.220;5.172;2023-04-24T12:22:53;100747.41;;;11.23;59.23
79791;BME280;69278;52.220;5.172;2023-04-24T12:25:26;100769.78;;;11.00;57.99
79791;BME280;69278;52.220;5.172;2023-04-24T12:27:54;100759.78;;;11.13;58.74
79791;BME280;69278;52.220;5.172;2023-04-24T12:30:26;100757.97;;;11.14;59.54
79791;BME280;69278;52.220;5.172;2023-04-24T12:32:57;100776.00;;;11.18;59.13
79791;BME280;69278;52.220;5.172;2023-04-24T12:35:26;100797.63;;;11.12;59.94
79791;BME280;69278;52.220;5.172;2023-04-24T12:37:54;100798.06;;;10.98;60.87
79791;BME280;69278;52.220;5.172;2023-04-24T12:40:21;100776.16;;;10.50;63.22
79791;BME280;69278;52.220;5.172;2023-04-24T12:42:51;100792.78;;;10.41;66.36
79791;BME280;69278;52.220;5.172;2023-04-24T12:45:18;100820.97;;;10.20;68.12
79791;BME280;69278;52.220;5.172;2023-04-24T12:47:45;100827.09;;;10.30;67.70
79791;BME280;69278;52.220;5.172;2023-04-24T12:50:14;100761.63;;;9.96;68.55
79791;BME280;69278;52.220;5.172;2023-04-24T12:52:41;100799.56;;;10.24;67.53
79791;BME280;69278;52.220;5.172;2023-04-24T12:55:08;100816.75;;;10.38;67.31
79791;BME280;69278;52.220;5.172;2023-04-24T12:57:37;100814.13;;;10.38;65.75
79791;BME280;69278;52.220;5.172;2023-04-24T13:00:05;100807.16;;;10.37;65.12
79791;BME280;69278;52.220;5.172;2023-04-24T13:02:33;100807.59;;;10.42;63.49
79791;BME280;69278;52.220;5.172;2023-04-24T13:05:01;100823.84;;;10.66;63.77
79791;BME280;69278;52.220;5.172;2023-04-24T13:07:27;100794.19;;;10.74;62.93